Bratislava, Slovakia
Current Conditions -  °F | °C
As of 6:00 PM on Wednesday 28 Jan 2015 (Local Time) from LZIB Reporting Station
Broken Clouds Broken Clouds  
Wind Chill: 33°   Ceiling: 3400
Heat Index: 37°   Visibility: 6mi
Dew Point: 30°   Wind: 6mph
Humidity: 75%   Direction: 220°SW
Pressure: 29.94"   Gusts: NA
Location:  48.16°N, 17.13°E
Report Text: LZIB 281600Z 22005KT 9999 BKN034 03/M01 Q1014 R04/29//95R13/////95 NOSIG
Loading
Personal Weather Stations






























Interactive Weather Map New forecast layout! Learn more

10-Day Weather Forecast

Advertisements
Track Severe Weather on mobile